createdAt,value
2019-03-29T00:02:22.562Z,7.90
2019-03-29T00:04:50.806Z,7.80
2019-03-29T00:07:18.893Z,7.80
2019-03-29T00:09:46.371Z,7.80
2019-03-29T00:12:13.939Z,7.60
2019-03-29T00:14:42.116Z,7.70
2019-03-29T00:17:10.166Z,7.50
2019-03-29T00:19:37.650Z,7.50
2019-03-29T00:22:05.307Z,7.50
2019-03-29T00:24:32.627Z,7.40
2019-03-29T00:27:00.130Z,7.40
2019-03-29T00:29:27.631Z,7.40
2019-03-29T00:31:55.131Z,7.30
2019-03-29T00:34:22.730Z,7.30
2019-03-29T00:36:50.258Z,7.30
2019-03-29T00:39:17.746Z,7.40
2019-03-29T00:41:45.316Z,7.40
2019-03-29T00:44:12.806Z,7.40
2019-03-29T00:46:41.050Z,7.30
2019-03-29T00:49:09.325Z,7.30
2019-03-29T00:51:36.798Z,7.30
2019-03-29T00:54:04.282Z,7.20
2019-03-29T00:56:32.559Z,7.00
2019-03-29T00:59:00.033Z,7.00
2019-03-29T01:01:28.271Z,7.10
2019-03-29T01:03:55.860Z,7.00
2019-03-29T01:06:24.145Z,7.00
2019-03-29T01:08:52.534Z,6.80
2019-03-29T01:11:21.618Z,6.60
2019-03-29T01:13:49.170Z,6.60
2019-03-29T01:16:16.641Z,6.70
2019-03-29T01:18:44.118Z,6.60
2019-03-29T01:21:12.362Z,6.50
2019-03-29T01:23:39.838Z,6.50
2019-03-29T01:26:07.342Z,6.70
2019-03-29T01:28:35.969Z,6.50
2019-03-29T01:31:03.730Z,6.50
2019-03-29T01:33:31.223Z,6.40
2019-03-29T01:35:58.879Z,6.50
2019-03-29T01:38:26.358Z,6.50
2019-03-29T01:40:53.843Z,6.50
2019-03-29T01:43:22.079Z,6.50
2019-03-29T01:45:49.553Z,6.50
2019-03-29T01:48:17.216Z,6.70
2019-03-29T01:50:44.789Z,6.60
2019-03-29T01:53:12.278Z,6.50
2019-03-29T01:55:40.527Z,6.50
2019-03-29T01:58:08.075Z,6.50
2019-03-29T02:00:36.328Z,6.50
2019-03-29T02:03:04.436Z,6.40
2019-03-29T02:05:32.021Z,6.40
2019-03-29T02:07:59.817Z,6.30
2019-03-29T02:10:28.109Z,6.20
2019-03-29T02:12:56.779Z,6.10
2019-03-29T02:15:25.034Z,6.00
2019-03-29T02:17:52.538Z,6.00
2019-03-29T02:20:20.055Z,5.90
2019-03-29T02:22:47.526Z,6.00
2019-03-29T02:25:15.990Z,6.10
2019-03-29T02:27:43.317Z,6.00
2019-03-29T02:30:10.799Z,6.00
2019-03-29T02:32:38.284Z,6.00
2019-03-29T02:35:05.858Z,6.10
2019-03-29T02:37:34.975Z,6.10
2019-03-29T02:40:04.381Z,6.10
2019-03-29T02:42:32.627Z,6.00
2019-03-29T02:45:00.441Z,6.00
2019-03-29T02:47:28.382Z,6.00
2019-03-29T02:49:55.986Z,6.00
2019-03-29T02:52:24.279Z,6.20
2019-03-29T02:54:51.748Z,6.20
2019-03-29T02:57:19.255Z,6.10
2019-03-29T02:59:46.739Z,6.20
2019-03-29T03:02:14.988Z,6.00
2019-03-29T03:04:42.550Z,6.00
2019-03-29T03:07:10.037Z,6.30
2019-03-29T03:09:38.274Z,6.10
2019-03-29T03:12:05.754Z,6.10
2019-03-29T03:14:33.252Z,6.10
2019-03-29T03:17:01.894Z,5.90
2019-03-29T03:19:29.384Z,5.90
2019-03-29T03:21:56.864Z,5.80
2019-03-29T03:24:25.115Z,5.80
2019-03-29T03:26:52.581Z,5.80
2019-03-29T03:29:21.258Z,6.00
2019-03-29T03:31:49.344Z,5.90
2019-03-29T03:34:16.829Z,5.90
2019-03-29T03:36:45.079Z,5.70
2019-03-29T03:39:30.132Z,5.70
2019-03-29T03:41:40.174Z,5.70
2019-03-29T03:44:07.688Z,5.70
2019-03-29T03:46:35.172Z,5.70
2019-03-29T03:49:02.651Z,5.60
2019-03-29T03:51:30.128Z,5.70
2019-03-29T03:53:57.624Z,5.70
2019-03-29T03:56:25.097Z,5.70
2019-03-29T03:58:52.715Z,5.80
2019-03-29T04:01:20.251Z,5.90
2019-03-29T04:03:47.805Z,5.90
2019-03-29T04:06:16.066Z,6.10
2019-03-29T04:08:44.139Z,6.00
2019-03-29T04:11:12.385Z,5.80
2019-03-29T04:13:39.991Z,5.80
2019-03-29T04:16:07.480Z,5.90
2019-03-29T04:18:35.021Z,6.00
2019-03-29T04:21:04.308Z,6.00
2019-03-29T04:23:31.998Z,6.00
2019-03-29T04:26:00.423Z,5.90
2019-03-29T04:28:27.837Z,5.90
2019-03-29T04:30:56.202Z,5.90
2019-03-29T04:33:23.677Z,5.90
2019-03-29T04:35:51.179Z,5.90
2019-03-29T04:38:18.662Z,6.00
2019-03-29T04:40:46.148Z,5.70
2019-03-29T04:43:13.723Z,5.80
2019-03-29T04:45:41.284Z,5.80
2019-03-29T04:48:09.569Z,5.90
2019-03-29T04:50:38.562Z,5.80
2019-03-29T04:53:07.570Z,5.70
2019-03-29T04:55:35.823Z,5.70
2019-03-29T04:58:04.789Z,5.60
2019-03-29T05:00:33.025Z,5.70
2019-03-29T05:03:01.306Z,5.70
2019-03-29T05:05:28.773Z,5.60
2019-03-29T05:07:57.030Z,5.50
2019-03-29T05:10:24.508Z,5.50
2019-03-29T05:12:51.998Z,5.60
2019-03-29T05:15:19.480Z,5.40
2019-03-29T05:17:46.974Z,5.50
2019-03-29T05:20:14.457Z,5.60
2019-03-29T05:22:42.003Z,5.40
2019-03-29T05:25:09.468Z,5.40
2019-03-29T05:27:37.039Z,5.40
2019-03-29T05:30:04.564Z,5.50
2019-03-29T05:32:32.025Z,5.50
2019-03-29T05:34:59.501Z,5.40
2019-03-29T05:37:26.990Z,5.40
2019-03-29T05:39:55.963Z,5.40
2019-03-29T05:42:23.431Z,5.40
2019-03-29T05:44:50.931Z,5.50
2019-03-29T05:47:19.185Z,5.50
2019-03-29T05:49:46.759Z,5.50
2019-03-29T05:52:14.249Z,5.50
2019-03-29T05:54:41.736Z,5.50
2019-03-29T05:57:09.246Z,5.50
2019-03-29T05:59:36.732Z,5.60
2019-03-29T06:02:04.219Z,5.50
2019-03-29T06:04:31.705Z,5.50
2019-03-29T06:06:59.268Z,5.50
2019-03-29T06:09:26.779Z,5.40
2019-03-29T06:11:55.014Z,5.60
2019-03-29T06:14:22.485Z,5.70
2019-03-29T06:16:50.175Z,5.80
2019-03-29T06:19:18.440Z,5.60
2019-03-29T06:21:46.716Z,6.40
2019-03-29T06:24:14.204Z,6.40
2019-03-29T06:26:42.559Z,5.90
2019-03-29T06:29:10.046Z,5.90
2019-03-29T06:31:37.589Z,5.80
2019-03-29T06:34:05.149Z,5.80
2019-03-29T06:36:32.633Z,5.90
2019-03-29T06:39:00.879Z,5.90
2019-03-29T06:41:28.459Z,5.90
2019-03-29T06:43:55.935Z,5.90
2019-03-29T06:46:23.417Z,6.00
2019-03-29T06:48:51.758Z,6.10
2019-03-29T06:51:19.235Z,6.10
2019-03-29T06:53:47.556Z,6.40
2019-03-29T06:56:15.047Z,6.40
2019-03-29T06:58:42.537Z,6.50
2019-03-29T07:01:11.591Z,6.70
2019-03-29T07:03:39.071Z,6.70
2019-03-29T07:06:06.540Z,6.80
2019-03-29T07:08:34.023Z,6.80
2019-03-29T07:11:16.206Z,7.20
2019-03-29T07:13:29.762Z,7.20
2019-03-29T07:15:57.375Z,7.60
2019-03-29T07:18:24.845Z,7.80
2019-03-29T07:20:52.579Z,8.00
2019-03-29T07:23:20.828Z,8.50
2019-03-29T07:25:48.317Z,8.50
2019-03-29T07:28:16.677Z,8.80
2019-03-29T07:30:44.166Z,8.80
2019-03-29T07:33:12.423Z,8.90
2019-03-29T07:35:39.986Z,8.90
2019-03-29T07:38:07.655Z,9.00
2019-03-29T07:40:35.215Z,9.00
2019-03-29T07:43:03.625Z,9.00
2019-03-29T07:45:31.877Z,9.30
2019-03-29T07:47:59.360Z,9.40
2019-03-29T07:50:26.837Z,9.60
2019-03-29T07:52:54.329Z,9.60
2019-03-29T07:55:21.809Z,9.90
2019-03-29T07:57:49.299Z,10.10
2019-03-29T08:00:20.194Z,10.30
2019-03-29T08:02:44.302Z,10.40
2019-03-29T08:05:11.904Z,10.40
2019-03-29T08:07:40.160Z,10.70
2019-03-29T08:10:07.642Z,10.70
2019-03-29T08:12:36.011Z,11.00
2019-03-29T08:15:04.998Z,11.30
2019-03-29T08:17:32.523Z,11.30
2019-03-29T08:20:35.596Z,11.50
2019-03-29T08:22:28.439Z,11.80
2019-03-29T08:24:59.292Z,11.80
2019-03-29T08:27:25.230Z,11.70
2019-03-29T08:29:52.727Z,11.70
2019-03-29T08:32:20.211Z,11.90
2019-03-29T08:34:48.589Z,12.20
2019-03-29T08:37:16.208Z,12.20
2019-03-29T08:39:43.722Z,12.20
2019-03-29T08:42:11.286Z,12.50
2019-03-29T08:44:38.797Z,12.70
2019-03-29T08:47:06.313Z,12.80
2019-03-29T08:49:33.794Z,12.80
2019-03-29T08:52:02.129Z,12.90
2019-03-29T08:54:29.725Z,12.80
2019-03-29T08:56:57.216Z,13.00
2019-03-29T08:59:25.566Z,13.10
2019-03-29T09:01:53.055Z,13.10
2019-03-29T09:04:21.812Z,13.10
2019-03-29T09:06:53.679Z,13.10
2019-03-29T09:09:16.329Z,13.00
2019-03-29T09:11:43.905Z,13.40
2019-03-29T09:14:11.467Z,13.30
2019-03-29T09:16:40.462Z,13.80
2019-03-29T09:19:08.024Z,13.80
2019-03-29T09:21:35.530Z,13.90
2019-03-29T09:24:04.708Z,13.80
2019-03-29T09:26:33.099Z,13.90
2019-03-29T09:29:00.601Z,13.90
2019-03-29T09:31:28.569Z,14.10
2019-03-29T09:33:58.620Z,14.00
2019-03-29T09:36:23.642Z,14.00
2019-03-29T09:38:51.174Z,14.00
2019-03-29T09:41:18.704Z,14.30
2019-03-29T09:43:46.192Z,14.40
2019-03-29T09:46:13.678Z,14.20
2019-03-29T09:48:41.277Z,14.10
2019-03-29T09:51:09.524Z,14.00
2019-03-29T09:53:37.018Z,14.00
2019-03-29T09:56:05.291Z,14.40
2019-03-29T09:58:33.554Z,14.30
2019-03-29T10:01:01.037Z,14.20
2019-03-29T10:03:29.309Z,14.70
2019-03-29T10:05:56.986Z,14.60
2019-03-29T10:08:25.244Z,15.10
2019-03-29T10:10:52.928Z,15.00
2019-03-29T10:13:20.431Z,15.00
2019-03-29T10:15:51.192Z,15.20
2019-03-29T10:18:16.319Z,15.20
2019-03-29T10:20:43.842Z,15.20
2019-03-29T10:23:11.419Z,14.60
2019-03-29T10:25:38.939Z,14.90
2019-03-29T10:28:07.203Z,14.90
2019-03-29T10:30:36.195Z,15.10
2019-03-29T10:33:04.586Z,15.40
2019-03-29T10:35:32.138Z,15.40
2019-03-29T10:37:59.707Z,15.70
2019-03-29T10:40:27.291Z,15.50
2019-03-29T10:42:58.087Z,15.20
2019-03-29T10:45:23.118Z,15.20
2019-03-29T10:47:50.681Z,15.50
2019-03-29T10:50:18.212Z,15.60
2019-03-29T10:52:45.821Z,15.50
2019-03-29T10:55:13.307Z,15.50
2019-03-29T10:57:40.814Z,15.50
2019-03-29T11:00:09.015Z,15.40
2019-03-29T11:02:36.553Z,15.20
2019-03-29T11:05:04.065Z,15.70
2019-03-29T11:07:32.322Z,15.70
2019-03-29T11:10:00.577Z,15.90
2019-03-29T11:12:28.090Z,15.90
2019-03-29T11:14:56.445Z,16.00
2019-03-29T11:17:24.714Z,15.70
2019-03-29T11:19:52.290Z,15.70
2019-03-29T11:22:19.888Z,15.50
2019-03-29T11:24:47.512Z,15.70
2019-03-29T11:27:15.095Z,16.00
2019-03-29T11:29:42.570Z,16.00
2019-03-29T11:32:10.847Z,16.50
2019-03-29T11:34:39.120Z,16.60
2019-03-29T11:37:07.405Z,16.00
2019-03-29T11:39:34.903Z,16.00
2019-03-29T11:42:03.692Z,15.70
2019-03-29T11:44:30.554Z,15.90
2019-03-29T11:46:58.058Z,16.00
2019-03-29T11:49:25.592Z,15.80
2019-03-29T11:51:53.061Z,16.30
2019-03-29T11:54:20.550Z,16.50
2019-03-29T11:56:48.201Z,16.50
2019-03-29T11:59:16.484Z,16.40
2019-03-29T12:01:43.983Z,16.40
2019-03-29T12:04:12.233Z,16.20
2019-03-29T12:06:39.739Z,16.20
2019-03-29T12:09:07.226Z,16.30
2019-03-29T12:11:34.708Z,16.20
2019-03-29T12:14:04.873Z,16.10
2019-03-29T12:16:30.567Z,15.90
2019-03-29T12:18:58.062Z,15.90
2019-03-29T12:21:26.404Z,16.10
2019-03-29T12:23:53.901Z,16.10
2019-03-29T12:26:22.150Z,16.20
2019-03-29T12:28:51.276Z,16.20
2019-03-29T12:31:19.655Z,16.20
2019-03-29T12:33:47.225Z,16.20
2019-03-29T12:36:15.587Z,16.30
2019-03-29T12:38:43.914Z,16.20
2019-03-29T12:41:11.400Z,16.10
2019-03-29T12:43:38.901Z,16.20
2019-03-29T12:46:06.386Z,16.30
2019-03-29T12:48:33.915Z,16.10
2019-03-29T12:51:02.170Z,16.20
2019-03-29T12:53:29.704Z,16.20
2019-03-29T12:55:57.967Z,16.50
2019-03-29T12:58:26.222Z,16.50
2019-03-29T13:00:53.786Z,16.50
2019-03-29T13:03:22.805Z,16.60
2019-03-29T13:05:51.064Z,16.60
2019-03-29T13:08:18.729Z,16.60
2019-03-29T13:10:48.011Z,16.70
2019-03-29T13:13:16.324Z,16.60
2019-03-29T13:15:43.825Z,16.60
2019-03-29T13:18:11.306Z,16.40
2019-03-29T13:20:38.800Z,16.50
2019-03-29T13:23:06.304Z,16.80
2019-03-29T13:25:33.799Z,16.50
2019-03-29T13:28:01.703Z,16.90
2019-03-29T13:33:02.655Z,17.00
2019-03-29T13:35:30.185Z,17.00
2019-03-29T13:37:57.698Z,16.90
2019-03-29T13:40:25.191Z,16.90
2019-03-29T13:42:53.529Z,16.90
2019-03-29T13:45:21.119Z,16.90
2019-03-29T13:47:49.582Z,17.30
2019-03-29T13:50:17.760Z,17.30
2019-03-29T13:52:45.374Z,17.20
2019-03-29T13:55:13.005Z,16.70
2019-03-29T13:57:41.352Z,16.50
2019-03-29T14:00:08.843Z,16.40
2019-03-29T14:02:36.338Z,16.50
2019-03-29T14:05:04.699Z,16.50
2019-03-29T14:07:32.871Z,16.50
2019-03-29T14:10:00.551Z,16.40
2019-03-29T14:12:28.716Z,16.20
2019-03-29T14:14:56.214Z,16.10
2019-03-29T14:17:23.703Z,16.10
2019-03-29T14:19:51.191Z,16.10
2019-03-29T14:22:19.449Z,15.60
2019-03-29T14:24:47.060Z,15.60
2019-03-29T14:27:14.552Z,15.50
2019-03-29T14:29:42.040Z,15.60
2019-03-29T14:32:09.643Z,15.70
2019-03-29T14:34:37.137Z,15.90
2019-03-29T14:37:04.671Z,15.90
2019-03-29T14:39:32.221Z,15.50
2019-03-29T14:41:59.705Z,15.30
2019-03-29T14:44:27.970Z,15.50
2019-03-29T14:46:55.535Z,15.40
2019-03-29T14:49:23.052Z,15.40
2019-03-29T14:51:50.546Z,15.60
2019-03-29T14:54:18.030Z,15.90
2019-03-29T14:56:45.593Z,15.80
2019-03-29T14:59:13.086Z,15.80
2019-03-29T15:01:40.663Z,15.60
2019-03-29T15:04:08.284Z,16.00
2019-03-29T15:06:35.861Z,16.20
2019-03-29T15:09:04.742Z,16.20
2019-03-29T15:11:32.590Z,16.10
2019-03-29T15:16:20.949Z,15.80
2019-03-29T15:18:48.442Z,16.00
2019-03-29T15:21:15.940Z,15.80
2019-03-29T15:23:44.301Z,16.00
2019-03-29T15:26:11.786Z,16.00
2019-03-29T15:28:39.284Z,15.80
2019-03-29T15:31:07.554Z,15.80
2019-03-29T15:33:35.171Z,15.80
2019-03-29T15:36:02.677Z,15.40
2019-03-29T15:38:30.167Z,15.30
2019-03-29T15:40:57.740Z,15.20
2019-03-29T15:43:25.342Z,15.50
2019-03-29T15:45:53.708Z,16.00
2019-03-29T15:48:21.207Z,16.00
2019-03-29T15:50:48.925Z,15.60
2019-03-29T15:53:16.428Z,15.30
2019-03-29T15:55:44.690Z,15.70
2019-03-29T15:58:12.170Z,15.70
2019-03-29T16:00:40.826Z,15.40
2019-03-29T16:03:08.355Z,15.40
2019-03-29T16:05:35.963Z,15.70
2019-03-29T16:08:03.628Z,15.50
2019-03-29T16:10:31.121Z,15.50
2019-03-29T16:12:58.611Z,15.80
2019-03-29T16:15:34.844Z,15.80
2019-03-29T16:17:53.724Z,15.30
2019-03-29T16:20:21.332Z,15.20
2019-03-29T16:22:48.854Z,15.30
2019-03-29T16:25:16.337Z,15.60
2019-03-29T16:27:43.846Z,15.40
2019-03-29T16:30:12.115Z,15.40
2019-03-29T16:32:39.620Z,15.50
2019-03-29T16:35:07.117Z,15.70
2019-03-29T16:37:34.715Z,15.70
2019-03-29T16:40:02.233Z,15.20
2019-03-29T16:42:29.877Z,14.90
2019-03-29T16:44:57.374Z,15.40
2019-03-29T16:47:24.894Z,15.80
2019-03-29T16:49:52.398Z,15.70
2019-03-29T16:52:19.985Z,15.50
2019-03-29T16:54:47.490Z,15.30
2019-03-29T16:57:15.130Z,15.70
2019-03-29T16:59:42.609Z,15.50
2019-03-29T17:02:10.142Z,15.70
2019-03-29T17:04:37.712Z,15.60
2019-03-29T17:07:06.101Z,15.20
2019-03-29T17:09:33.622Z,15.20
2019-03-29T17:12:02.086Z,15.20
2019-03-29T17:14:29.575Z,15.20
2019-03-29T17:16:57.079Z,14.70
2019-03-29T17:19:24.637Z,14.40
2019-03-29T17:21:52.196Z,14.30
2019-03-29T17:24:21.196Z,14.80
2019-03-29T17:26:48.680Z,14.80
2019-03-29T17:29:17.040Z,14.20
2019-03-29T17:31:44.545Z,14.20
2019-03-29T17:34:12.063Z,14.20
2019-03-29T17:36:40.366Z,13.80
2019-03-29T17:39:08.621Z,13.70
2019-03-29T17:41:36.185Z,13.70
2019-03-29T17:44:04.678Z,13.50
2019-03-29T17:46:32.267Z,13.40
2019-03-29T17:49:00.528Z,13.50
2019-03-29T17:51:28.093Z,13.40
2019-03-29T17:53:56.391Z,13.50
2019-03-29T17:56:24.654Z,13.60
2019-03-29T17:58:52.169Z,13.60
2019-03-29T18:01:19.664Z,13.90
2019-03-29T18:03:48.094Z,14.00
2019-03-29T18:06:15.626Z,14.20
2019-03-29T18:08:43.107Z,13.70
2019-03-29T18:11:11.442Z,13.90
2019-03-29T18:13:39.027Z,13.90
2019-03-29T18:16:06.592Z,13.90
2019-03-29T18:18:34.093Z,14.00
2019-03-29T18:21:01.587Z,14.00
2019-03-29T18:23:29.186Z,13.50
2019-03-29T18:25:56.954Z,13.40
2019-03-29T18:28:24.538Z,13.30
2019-03-29T18:30:52.901Z,13.50
2019-03-29T18:33:21.173Z,13.70
2019-03-29T18:35:48.678Z,13.70
2019-03-29T18:38:16.205Z,13.60
2019-03-29T18:40:43.721Z,13.60
2019-03-29T18:43:11.250Z,13.40
2019-03-29T18:45:41.658Z,13.40
2019-03-29T18:48:07.088Z,13.40
2019-03-29T18:50:35.375Z,13.20
2019-03-29T18:53:04.488Z,13.10
2019-03-29T18:55:32.749Z,13.20
2019-03-29T18:58:01.044Z,13.10
2019-03-29T19:00:29.310Z,13.50
2019-03-29T19:02:57.694Z,13.30
2019-03-29T19:05:25.261Z,13.30
2019-03-29T19:07:53.527Z,13.10
2019-03-29T19:10:21.059Z,13.10
2019-03-29T19:12:48.554Z,13.00
2019-03-29T19:15:16.048Z,12.90
2019-03-29T19:17:44.321Z,13.30
2019-03-29T19:20:26.258Z,13.10
2019-03-29T19:22:40.253Z,13.10
2019-03-29T19:25:07.745Z,12.70
2019-03-29T19:27:35.226Z,12.60
2019-03-29T19:30:03.667Z,12.60
2019-03-29T19:32:31.374Z,12.40
2019-03-29T19:34:59.320Z,12.50
2019-03-29T19:37:27.571Z,12.50
2019-03-29T19:39:55.062Z,12.50
2019-03-29T19:42:22.569Z,12.30
2019-03-29T19:44:50.075Z,12.20
2019-03-29T19:47:18.295Z,12.20
2019-03-29T19:49:45.795Z,12.20
2019-03-29T19:52:13.292Z,12.20
2019-03-29T19:54:41.569Z,12.30
2019-03-29T19:57:09.865Z,12.20
2019-03-29T19:59:37.413Z,12.20
2019-03-29T20:02:05.716Z,12.30
2019-03-29T20:04:33.985Z,12.40
2019-03-29T20:07:02.270Z,12.40
2019-03-29T20:09:29.790Z,12.30
2019-03-29T20:11:57.498Z,12.20
2019-03-29T20:14:24.993Z,12.10
2019-03-29T20:16:55.124Z,11.90
2019-03-29T20:19:20.767Z,11.90
2019-03-29T20:21:49.032Z,12.10
2019-03-29T20:24:16.620Z,12.10
2019-03-29T20:26:44.223Z,12.20
2019-03-29T20:29:11.706Z,12.10
2019-03-29T20:31:39.296Z,12.00
2019-03-29T20:34:06.849Z,11.90
2019-03-29T20:36:34.437Z,11.70
2019-03-29T20:39:03.998Z,11.40
2019-03-29T20:41:31.503Z,11.40
2019-03-29T20:43:58.982Z,11.50
2019-03-29T20:46:27.251Z,11.60
2019-03-29T20:48:54.785Z,11.60
2019-03-29T20:51:22.273Z,11.60
2019-03-29T20:53:49.786Z,11.50
2019-03-29T20:56:17.365Z,11.60
2019-03-29T20:58:45.020Z,11.50
2019-03-29T21:01:12.525Z,11.60
2019-03-29T21:03:40.119Z,11.60
2019-03-29T21:06:08.409Z,11.80
2019-03-29T21:08:36.657Z,11.60
2019-03-29T21:11:04.272Z,11.60
2019-03-29T21:13:31.804Z,11.60
2019-03-29T21:16:00.183Z,11.50
2019-03-29T21:18:28.806Z,11.20
2019-03-29T21:20:56.314Z,11.30
2019-03-29T21:23:23.810Z,11.20
2019-03-29T21:25:52.085Z,11.20
2019-03-29T21:28:20.343Z,11.30
2019-03-29T21:30:47.837Z,11.30
2019-03-29T21:33:17.166Z,11.00
2019-03-29T21:40:42.375Z,11.00
2019-03-29T21:43:10.689Z,10.80
2019-03-29T21:45:38.242Z,10.80
2019-03-29T21:48:27.444Z,10.90
2019-03-29T21:50:34.186Z,11.00
2019-03-29T21:53:02.573Z,11.20
2019-03-29T21:55:30.225Z,11.20
2019-03-29T21:57:58.597Z,10.90
2019-03-29T22:00:26.971Z,10.80
2019-03-29T22:02:54.465Z,10.80
2019-03-29T22:05:22.720Z,10.60
2019-03-29T22:07:50.264Z,10.60
2019-03-29T22:10:17.770Z,10.70
2019-03-29T22:12:46.048Z,10.70
2019-03-29T22:15:14.386Z,10.60
2019-03-29T22:17:41.938Z,10.50
2019-03-29T22:20:09.428Z,10.70
2019-03-29T22:22:36.915Z,10.60
2019-03-29T22:25:05.914Z,10.30
2019-03-29T22:27:34.185Z,10.40
2019-03-29T22:30:02.550Z,10.40
2019-03-29T22:32:30.116Z,10.30
2019-03-29T22:34:57.699Z,10.40
2019-03-29T22:37:25.965Z,10.40
2019-03-29T22:39:53.559Z,10.40
2019-03-29T22:42:22.080Z,10.40
2019-03-29T22:44:49.665Z,10.40
2019-03-29T22:47:17.231Z,10.40
2019-03-29T22:49:44.725Z,10.50
2019-03-29T22:52:13.028Z,10.40
2019-03-29T22:54:40.511Z,10.40
2019-03-29T22:57:07.999Z,10.50
2019-03-29T22:59:35.619Z,10.40
2019-03-29T23:02:04.261Z,10.20
2019-03-29T23:04:32.537Z,10.30
2019-03-29T23:07:00.120Z,10.30
2019-03-29T23:09:28.381Z,10.20
2019-03-29T23:11:55.901Z,10.20
2019-03-29T23:14:23.393Z,9.90
2019-03-29T23:16:50.980Z,9.90
2019-03-29T23:19:18.489Z,9.90
2019-03-29T23:21:46.732Z,10.00
2019-03-29T23:24:14.216Z,10.00
2019-03-29T23:26:42.469Z,9.80
2019-03-29T23:29:09.967Z,9.80
2019-03-29T23:31:37.462Z,9.80
2019-03-29T23:34:04.958Z,10.00
2019-03-29T23:36:33.222Z,10.00
2019-03-29T23:39:00.802Z,10.00
2019-03-29T23:41:28.295Z,10.00
2019-03-29T23:43:55.900Z,10.00
2019-03-29T23:46:23.396Z,10.20
2019-03-29T23:48:50.978Z,10.10
2019-03-29T23:51:19.234Z,9.90
2019-03-29T23:53:46.781Z,9.80
2019-03-29T23:56:14.243Z,9.90
2019-03-29T23:58:42.552Z,9.80
